Main page
METAR-TAF:

METAR-TAF

Airports :

RNAS Culdrose (HMS Seahawk)

Culdrose, England

latitude: 50-05N, longitude: 005-15W, elevation: 78 m

Current weather observation

The report was made 25 minutes ago, at 08:50 UTC
Calm wind
Temperature 9°C
Humidity 76%
Pressure 1036 hPa
Visibility 10 km or more
Few clouds at a height of 2800 ft

METAR: EGDR 260850Z 00000KT 9999 FEW028 09/05 Q1036 BLU NOSIG

Time: 09:15 (09:15 UTC)

Forecast

The report was made 1 hour and 46 minutes ago, at 07:29 UTC
Forecast valid from 26 at 09 UTC to 26 at 18 UTC
Wind 5 kt from variable directions
Visibility 10 km or more
Few clouds at a height of 3000 ft

TAF: EGDR 260729Z 2609/2618 VRB05KT 9999 FEW030

Weather observations and forecasts of more than 4000 airports (METAR and TAF reports).

The available stations are represented by yellow and red dots on the map.

Hover mouse over dot to see the name of the station.

Then click to see weather observations and forecasts.

To change the map : click on the green buttons with a black cross to zoom in, on the green button with a dash to zoom out, or on the green arrows for adjacent maps.


METAR-TAF: